Time;durP1;ratioP1;P1;durP2;ratioP2;P2;SDS_P1;SDS_P2;PMS_P1;PMS_P2;Temp;Humidity;BMP_temperature;BMP_pressure;BME280_temperature;BME280_humidity;BME280_pressure;Samples;Min_cycle;Max_cycle;Signal;HPM_P1;HPM_P2
2024/01/30 00:08:57;;;;;;;2.05;0.98;;;0.00;94.90;;;;;;20753494;28;20668;-43
2024/01/30 00:18:59;;;;;;;1.73;0.90;;;-0.20;95.00;;;;;;20753632;28;20134;-46
2024/01/30 00:29:01;;;;;;;3.33;1.23;;;-0.20;95.60;;;;;;20752057;28;20402;-43
2024/01/30 00:39:07;;;;;;;3.78;1.88;;;-0.20;95.90;;;;;;20752522;28;20075;-43
2024/01/30 00:49:12;;;;;;;3.10;1.45;;;-0.40;97.20;;;;;;20751134;28;21397;-44
2024/01/30 00:59:13;;;;;;;1.92;1.20;;;-0.60;96.70;;;;;;20752875;28;20118;-44
2024/01/30 01:09:18;;;;;;;3.05;1.58;;;-0.50;96.40;;;;;;20750730;28;20041;-43
2024/01/30 01:19:20;;;;;;;2.22;1.33;;;-0.50;96.40;;;;;;20750040;28;20110;-43
2024/01/30 01:29:31;;;;;;;2.28;1.20;;;-0.50;96.40;;;;;;20750170;28;20972;-44
2024/01/30 01:39:32;;;;;;;3.53;1.65;;;-0.70;96.20;;;;;;20758185;28;20045;-45
2024/01/30 01:49:34;;;;;;;2.67;1.65;;;-0.70;97.00;;;;;;20766445;28;20091;-45
2024/01/30 01:59:36;;;;;;;2.80;1.58;;;-0.70;97.30;;;;;;20764873;28;20117;-43
2024/01/30 02:09:38;;;;;;;4.38;2.40;;;-0.60;97.10;;;;;;20764004;28;20045;-43
2024/01/30 02:19:40;;;;;;;4.30;2.17;;;-0.70;97.50;;;;;;20762806;28;20052;-44
2024/01/30 02:29:42;;;;;;;4.32;2.53;;;-0.80;98.10;;;;;;20762218;28;20856;-44
2024/01/30 02:39:44;;;;;;;4.95;2.20;;;-0.90;98.20;;;;;;20763700;28;20182;-44
2024/01/30 02:49:45;;;;;;;4.88;2.40;;;-0.80;98.30;;;;;;20761109;28;20418;-44
2024/01/30 02:59:47;;;;;;;4.72;2.53;;;-0.90;98.80;;;;;;20758920;28;20103;-45
2024/01/30 03:09:49;;;;;;;4.68;1.83;;;-0.80;98.60;;;;;;20756173;28;21471;-43
2024/01/30 03:19:54;;;;;;;3.97;2.22;;;-0.70;97.70;;;;;;20757564;28;20049;-43
2024/01/30 03:29:56;;;;;;;5.22;2.63;;;-0.80;98.10;;;;;;20758908;28;20045;-44
2024/01/30 03:39:57;;;;;;;9.20;2.97;;;-0.60;97.80;;;;;;20756538;28;20036;-44
2024/01/30 03:49:59;;;;;;;4.25;2.22;;;-0.60;97.80;;;;;;20755037;28;20041;-45
2024/01/30 04:00:01;;;;;;;4.32;1.85;;;-0.70;97.80;;;;;;20754372;28;20116;-43
2024/01/30 04:10:06;;;;;;;5.00;2.08;;;-0.70;97.20;;;;;;20755806;28;20104;-45
2024/01/30 04:20:12;;;;;;;4.68;2.38;;;-0.70;97.50;;;;;;20752753;28;20848;-46
2024/01/30 04:30:16;;;;;;;3.38;1.83;;;-0.70;98.10;;;;;;20753840;28;20130;-45
2024/01/30 04:40:18;;;;;;;8.45;2.40;;;-0.70;97.70;;;;;;20752076;28;20044;-44
2024/01/30 04:50:20;;;;;;;3.88;2.20;;;-0.90;98.20;;;;;;20751730;28;20041;-44
2024/01/30 05:00:22;;;;;;;4.65;2.47;;;-0.90;98.30;;;;;;20751187;28;20037;-43
2024/01/30 05:10:23;;;;;;;4.35;2.55;;;-1.00;98.90;;;;;;20747679;28;20033;-45
2024/01/30 05:20:27;;;;;;;4.88;2.72;;;-0.80;98.70;;;;;;20765430;28;20095;-43
2024/01/30 05:30:29;;;;;;;5.35;2.63;;;-0.80;98.90;;;;;;20766803;28;20094;-43
2024/01/30 05:40:31;;;;;;;5.07;2.50;;;-0.90;98.90;;;;;;20767419;28;20045;-44
2024/01/30 05:50:33;;;;;;;4.63;2.38;;;-0.90;98.90;;;;;;20762838;28;20041;-43
2024/01/30 06:00:35;;;;;;;4.25;2.28;;;-0.90;98.50;;;;;;20763231;28;20479;-45
2024/01/30 06:10:36;;;;;;;4.70;2.25;;;-0.80;98.10;;;;;;20762158;28;20045;-43
2024/01/30 06:20:38;;;;;;;6.88;2.45;;;-0.40;98.20;;;;;;20741843;28;20049;-43
2024/01/30 06:30:40;;;;;;;2.20;1.52;;;-0.50;98.40;;;;;;20758596;28;20566;-44
2024/01/30 06:40:42;;;;;;;3.42;1.90;;;-0.60;98.10;;;;;;20756682;28;20041;-47
2024/01/30 06:50:45;;;;;;;2.30;1.15;;;-0.60;98.50;;;;;;20757019;28;20045;-42
2024/01/30 07:00:47;;;;;;;4.70;1.50;;;-0.60;97.20;;;;;;20755633;28;20045;-44
2024/01/30 07:10:49;;;;;;;2.50;1.30;;;-0.10;96.80;;;;;;20756011;28;20041;-44
2024/01/30 07:20:51;;;;;;;2.88;1.30;;;0.10;96.80;;;;;;20753888;28;20049;-44
2024/01/30 07:30:53;;;;;;;1.85;1.25;;;0.20;96.60;;;;;;20752650;28;20037;-43
2024/01/30 07:40:55;;;;;;;3.13;1.10;;;0.20;96.40;;;;;;20749236;28;20041;-43
2024/01/30 07:50:56;;;;;;;5.47;2.28;;;0.70;95.80;;;;;;20749651;28;20461;-45
2024/01/30 08:01:00;;;;;;;3.67;2.03;;;1.30;96.70;;;;;;20747128;28;20041;-46
2024/01/30 08:11:02;;;;;;;4.10;2.50;;;2.10;95.60;;;;;;20748675;28;20454;-44
2024/01/30 08:21:05;;;;;;;7.18;3.60;;;3.20;94.90;;;;;;20748337;28;20588;-45
2024/01/30 08:31:07;;;;;;;5.47;3.50;;;4.00;95.00;;;;;;20750143;28;20041;-47
2024/01/30 08:41:09;;;;;;;7.07;3.88;;;5.20;91.50;;;;;;20750404;28;20062;-46
2024/01/30 08:51:11;;;;;;;7.45;4.38;;;6.00;90.40;;;;;;20743961;28;20453;-45
2024/01/30 09:01:13;;;;;;;5.97;3.53;;;6.60;87.50;;;;;;20746465;28;21229;-45
2024/01/30 09:11:15;;;;;;;5.85;3.28;;;6.90;85.80;;;;;;20746248;28;20396;-46
2024/01/30 09:21:17;;;;;;;6.10;2.88;;;7.40;83.90;;;;;;20744316;28;21399;-45
2024/01/30 09:31:19;;;;;;;5.10;3.15;;;8.00;83.10;;;;;;20743868;28;20161;-46
2024/01/30 09:41:25;;;;;;;3.83;2.38;;;8.70;82.40;;;;;;20743886;28;20045;-48
2024/01/30 09:51:27;;;;;;;4.60;2.47;;;8.90;79.30;;;;;;20738892;28;20068;-46
2024/01/30 10:01:30;;;;;;;4.20;2.40;;;8.90;79.40;;;;;;20752196;28;20040;-48
2024/01/30 10:11:31;;;;;;;3.70;2.45;;;9.10;77.80;;;;;;20757900;28;20110;-46
2024/01/30 10:21:33;;;;;;;4.25;2.40;;;9.50;78.90;;;;;;20754039;28;21177;-46
2024/01/30 10:31:35;;;;;;;4.78;2.22;;;9.70;76.80;;;;;;20750832;28;20044;-47
2024/01/30 10:41:44;;;;;;;4.22;2.60;;;10.00;76.90;;;;;;20758365;28;21129;-45
2024/01/30 10:51:48;;;;;;;3.53;2.30;;;10.40;75.80;;;;;;20758115;28;20037;-47
2024/01/30 11:01:50;;;;;;;4.13;2.50;;;10.70;74.60;;;;;;20754554;28;20040;-45
2024/01/30 11:12:02;;;;;;;4.40;2.72;;;10.60;73.60;;;;;;20753631;28;20032;-47
2024/01/30 11:22:07;;;;;;;6.30;2.90;;;10.70;74.10;;;;;;20752965;28;20053;-48
2024/01/30 11:32:08;;;;;;;4.10;2.45;;;10.80;71.40;;;;;;20754375;28;20041;-45
2024/01/30 11:42:11;;;;;;;5.00;2.40;;;10.40;72.00;;;;;;20755475;28;20029;-47
2024/01/30 11:52:13;;;;;;;3.40;2.20;;;10.30;72.40;;;;;;20750643;28;20798;-46
2024/01/30 12:02:18;;;;;;;5.53;2.70;;;10.30;72.10;;;;;;20751361;28;20122;-45
2024/01/30 12:12:28;;;;;;;3.90;2.50;;;10.50;72.30;;;;;;20733073;28;20177;-46
2024/01/30 12:22:37;;;;;;;4.63;2.75;;;10.80;70.80;;;;;;20752330;28;20060;-47
2024/01/30 12:32:47;;;;;;;4.47;2.90;;;10.90;72.30;;;;;;20743779;28;20071;-46
2024/01/30 12:42:49;;;;;;;;;;;11.20;72.60;;;;;;20743611;28;20118;-47
2024/01/30 12:52:50;;;;;;;4.70;3.00;;;11.40;70.70;;;;;;20746074;28;20034;-45
2024/01/30 13:02:52;;;;;;;5.13;3.25;;;11.20;72.60;;;;;;20743292;28;20074;-45
2024/01/30 13:12:54;;;;;;;5.78;3.20;;;11.10;71.40;;;;;;20742665;28;20098;-46
2024/01/30 13:22:56;;;;;;;5.10;3.45;;;10.80;73.30;;;;;;20747420;28;20048;-47
2024/01/30 13:32:58;;;;;;;4.15;3.13;;;10.70;72.40;;;;;;20749384;28;20102;-46
2024/01/30 13:42:59;;;;;;;6.03;3.13;;;10.00;73.20;;;;;;20761796;28;20510;-47
2024/01/30 13:53:06;;;;;;;6.10;3.40;;;9.40;73.60;;;;;;20759077;28;20437;-44
2024/01/30 14:03:07;;;;;;;6.88;3.40;;;8.80;75.30;;;;;;20761202;28;20395;-45
2024/01/30 14:13:10;;;;;;;6.15;3.50;;;8.30;75.90;;;;;;20759926;28;20347;-43
2024/01/30 14:23:12;;;;;;;5.55;3.35;;;8.10;77.30;;;;;;20755044;28;20045;-45
2024/01/30 14:33:17;;;;;;;5.55;3.60;;;7.60;77.80;;;;;;20758756;28;20403;-45
2024/01/30 14:43:19;;;;;;;5.40;3.63;;;7.20;79.10;;;;;;20756642;28;20037;-48
2024/01/30 14:53:21;;;;;;;6.13;3.33;;;7.00;78.90;;;;;;20754697;28;20111;-45
2024/01/30 15:03:27;;;;;;;5.40;3.63;;;6.70;79.30;;;;;;20756342;28;20045;-44
2024/01/30 15:13:29;;;;;;;5.72;3.83;;;6.40;79.60;;;;;;20753242;28;20037;-45
2024/01/30 15:23:33;;;;;;;6.30;3.75;;;6.00;80.60;;;;;;20756086;28;20130;-44
2024/01/30 15:33:36;;;;;;;5.93;3.13;;;5.60;81.00;;;;;;20749633;28;20078;-44
2024/01/30 15:43:37;;;;;;;8.55;3.17;;;5.00;85.70;;;;;;20751354;28;20075;-43
2024/01/30 15:53:39;;;;;;;5.90;2.60;;;4.30;89.10;;;;;;20752847;28;20041;-43
2024/01/30 16:03:41;;;;;;;4.22;2.53;;;3.80;91.00;;;;;;20750037;28;20048;-44
2024/01/30 16:13:43;;;;;;;5.47;2.83;;;3.30;91.90;;;;;;20751210;28;21505;-40
2024/01/30 16:23:45;;;;;;;5.95;3.53;;;3.00;92.80;;;;;;20748016;28;20694;-44
2024/01/30 16:33:50;;;;;;;5.82;2.40;;;2.60;93.20;;;;;;20748215;28;20041;-45
2024/01/30 16:43:52;;;;;;;4.95;2.35;;;2.40;93.70;;;;;;20753013;28;20037;-43
2024/01/30 16:53:54;;;;;;;3.47;1.92;;;2.00;94.30;;;;;;20751199;28;20037;-43
2024/01/30 17:03:57;;;;;;;4.78;2.47;;;1.80;94.60;;;;;;20750226;28;20084;-43
2024/01/30 17:13:59;;;;;;;4.88;2.38;;;1.60;94.70;;;;;;20494130;28;20103;-43
2024/01/30 17:24:01;;;;;;;5.90;2.72;;;1.70;94.30;;;;;;20496504;28;20113;-42
2024/01/30 17:34:03;;;;;;;5.15;2.95;;;1.60;94.40;;;;;;20495677;28;20058;-46
2024/01/30 17:44:04;;;;;;;4.72;2.28;;;1.20;95.00;;;;;;20528765;28;20118;-44
2024/01/30 17:54:06;;;;;;;5.28;2.47;;;1.30;94.90;;;;;;20744181;28;20041;-44
2024/01/30 18:04:09;;;;;;;5.30;1.80;;;1.40;94.60;;;;;;20746072;28;21146;-45
2024/01/30 18:14:11;;;;;;;3.10;1.70;;;1.30;94.30;;;;;;20748279;28;21080;-43
2024/01/30 18:24:13;;;;;;;4.25;2.25;;;1.30;94.50;;;;;;20758229;28;20869;-44
2024/01/30 18:34:14;;;;;;;4.32;2.28;;;1.20;94.40;;;;;;20762515;28;20071;-44
2024/01/30 18:44:19;;;;;;;4.45;2.15;;;1.00;94.60;;;;;;20760030;28;20087;-45
2024/01/30 18:54:21;;;;;;;5.85;2.60;;;1.00;94.90;;;;;;20759847;28;20048;-43
2024/01/30 19:04:23;;;;;;;3.88;2.00;;;0.90;94.50;;;;;;20760459;28;20760;-43
2024/01/30 19:14:25;;;;;;;5.45;2.42;;;0.90;94.60;;;;;;20760637;28;20110;-43
2024/01/30 19:24:27;;;;;;;4.63;2.08;;;0.90;95.10;;;;;;20757243;28;20053;-45
2024/01/30 19:34:29;;;;;;;4.38;2.05;;;0.60;95.40;;;;;;20752129;28;20087;-45
2024/01/30 19:44:38;;;;;;;5.05;2.58;;;0.40;95.90;;;;;;20756087;28;20174;-45
2024/01/30 19:54:42;;;;;;;4.07;2.08;;;0.40;95.90;;;;;;20755156;28;20041;-45
2024/01/30 20:04:46;;;;;;;4.88;2.42;;;0.40;96.80;;;;;;20753805;28;20859;-44
2024/01/30 20:14:48;;;;;;;4.97;2.60;;;0.50;96.80;;;;;;20752171;28;20044;-43
2024/01/30 20:24:53;;;;;;;7.18;2.80;;;0.50;96.30;;;;;;20753868;28;20135;-44
2024/01/30 20:34:57;;;;;;;4.32;2.45;;;0.40;96.60;;;;;;20754754;28;20511;-44
2024/01/30 20:45:03;;;;;;;5.25;2.30;;;0.60;96.60;;;;;;20749110;28;20086;-43
2024/01/30 20:55:06;;;;;;;7.85;2.47;;;0.60;97.00;;;;;;20751194;28;20041;-43
2024/01/30 21:05:10;;;;;;;4.97;2.20;;;0.60;96.60;;;;;;20618949;28;20125;-44
2024/01/30 21:15:15;;;;;;;6.22;2.67;;;0.50;96.80;;;;;;20624676;28;20132;-43
2024/01/30 21:25:17;;;;;;;5.10;2.67;;;0.70;96.50;;;;;;20673686;28;20776;-46
2024/01/30 21:35:19;;;;;;;4.88;2.55;;;0.70;96.60;;;;;;20660959;28;20115;-44
2024/01/30 21:45:22;;;;;;;3.88;2.10;;;0.40;96.60;;;;;;20665053;28;20169;-43
2024/01/30 21:55:30;;;;;;;5.57;2.33;;;0.30;96.80;;;;;;20678806;28;21165;-44
2024/01/30 22:05:32;;;;;;;4.35;2.58;;;0.30;97.00;;;;;;20688284;28;20075;-43
2024/01/30 22:15:36;;;;;;;4.40;2.38;;;0.40;96.80;;;;;;20686906;28;20045;-44
2024/01/30 22:25:38;;;;;;;4.88;2.22;;;0.40;96.60;;;;;;20686844;28;21025;-43
2024/01/30 22:35:40;;;;;;;5.07;2.53;;;0.40;97.10;;;;;;20684901;28;21048;-41
2024/01/30 22:45:42;;;;;;;3.80;1.83;;;0.40;96.70;;;;;;20684969;28;20041;-43
2024/01/30 22:55:43;;;;;;;4.60;2.28;;;0.40;96.60;;;;;;20688265;28;20033;-43
2024/01/30 23:05:45;;;;;;;4.30;2.40;;;0.60;96.60;;;;;;20681582;28;20052;-44
2024/01/30 23:15:50;;;;;;;6.97;2.03;;;0.60;96.20;;;;;;20680808;28;20115;-44
2024/01/30 23:25:52;;;;;;;4.85;2.53;;;0.30;96.40;;;;;;20664950;28;20162;-44
2024/01/30 23:35:53;;;;;;;4.10;2.17;;;0.10;96.70;;;;;;20684209;28;20052;-43
2024/01/30 23:45:56;;;;;;;3.85;2.10;;;0.20;96.70;;;;;;20681264;28;20082;-45
2024/01/30 23:56:00;;;;;;;4.15;1.95;;;0.30;96.40;;;;;;20660884;28;20518;-43
